createdAt,value
2022-11-24T00:01:27.146Z,36.92
2022-11-24T00:03:55.928Z,37.15
2022-11-24T00:06:24.307Z,40.95
2022-11-24T00:08:52.171Z,42.45
2022-11-24T00:11:23.108Z,46.72
2022-11-24T00:13:51.148Z,50.15
2022-11-24T00:16:23.238Z,54.05
2022-11-24T00:18:52.636Z,52.30
2022-11-24T00:21:21.510Z,57.03
2022-11-24T00:23:50.166Z,65.05
2022-11-24T00:26:21.563Z,69.82
2022-11-24T00:28:53.029Z,63.65
2022-11-24T00:31:31.876Z,69.63
2022-11-24T00:34:02.549Z,71.25
2022-11-24T00:36:32.239Z,67.53
2022-11-24T00:39:06.110Z,69.57
2022-11-24T00:41:34.289Z,55.40
2022-11-24T00:44:01.900Z,56.63
2022-11-24T00:46:30.107Z,63.25
2022-11-24T00:48:58.162Z,57.95
2022-11-24T00:51:28.039Z,56.38
2022-11-24T00:53:56.648Z,59.53
2022-11-24T00:56:25.433Z,57.22
2022-11-24T00:58:53.072Z,60.35
2022-11-24T01:01:23.388Z,64.65
2022-11-24T01:03:51.978Z,64.35
2022-11-24T01:06:22.191Z,61.25
2022-11-24T01:08:50.406Z,60.83
2022-11-24T01:11:24.132Z,63.33
2022-11-24T01:13:57.499Z,60.67
2022-11-24T01:16:31.457Z,60.67
2022-11-24T01:18:59.106Z,64.47
2022-11-24T01:21:26.632Z,66.32
2022-11-24T01:23:54.147Z,71.53
2022-11-24T01:26:22.773Z,75.75
2022-11-24T01:28:58.616Z,75.38
2022-11-24T01:31:26.604Z,79.40
2022-11-24T01:33:55.630Z,80.90
2022-11-24T01:36:23.208Z,85.72
2022-11-24T01:38:51.422Z,90.88
2022-11-24T01:41:21.887Z,90.43
2022-11-24T01:43:50.936Z,94.20
2022-11-24T01:46:42.205Z,91.90
2022-11-24T01:49:09.692Z,99.75
2022-11-24T01:51:45.525Z,106.75
2022-11-24T01:54:22.062Z,115.05
2022-11-24T01:56:53.518Z,106.90
2022-11-24T01:59:23.046Z,121.50
2022-11-24T02:01:52.314Z,124.72
2022-11-24T02:04:24.597Z,127.10
2022-11-24T02:06:53.984Z,148.27
2022-11-24T02:09:33.308Z,132.15
2022-11-24T02:12:02.076Z,135.25
2022-11-24T02:14:29.829Z,138.60
2022-11-24T02:16:57.322Z,143.70
2022-11-24T02:19:40.233Z,133.32
2022-11-24T02:22:15.301Z,123.35
2022-11-24T02:25:11.730Z,128.82
2022-11-24T02:27:39.311Z,136.02
2022-11-24T02:30:07.234Z,134.40
2022-11-24T02:32:35.029Z,142.07
2022-11-24T02:35:05.260Z,128.95
2022-11-24T02:37:32.697Z,155.23
2022-11-24T02:40:06.206Z,147.68
2022-11-24T02:42:39.952Z,165.50
2022-11-24T02:45:09.771Z,165.52
2022-11-24T02:47:37.296Z,162.32
2022-11-24T02:50:05.174Z,168.02
2022-11-24T02:52:32.944Z,169.38
2022-11-24T02:55:00.535Z,162.30
2022-11-24T02:57:27.998Z,162.20
2022-11-24T02:59:55.930Z,175.43
2022-11-24T03:02:23.680Z,180.40
2022-11-24T03:04:51.273Z,184.45
2022-11-24T03:07:19.286Z,175.98
2022-11-24T03:09:46.864Z,160.48
2022-11-24T03:12:14.665Z,152.40
2022-11-24T03:14:42.251Z,157.52
2022-11-24T03:17:09.709Z,157.02
2022-11-24T03:19:37.451Z,188.95
2022-11-24T03:22:05.075Z,153.70
2022-11-24T03:24:32.788Z,185.40
2022-11-24T03:27:01.049Z,185.68
2022-11-24T03:29:28.825Z,172.43
2022-11-24T03:31:56.282Z,167.55
2022-11-24T03:34:23.729Z,150.93
2022-11-24T03:36:51.174Z,171.75
2022-11-24T03:39:18.690Z,161.57
2022-11-24T03:41:46.252Z,148.02
2022-11-24T03:44:13.793Z,149.98
2022-11-24T03:46:41.377Z,143.32
2022-11-24T03:49:09.067Z,146.57
2022-11-24T03:51:36.555Z,162.88
2022-11-24T03:54:04.178Z,158.15
2022-11-24T03:56:31.682Z,146.55
2022-11-24T03:58:59.816Z,150.18
2022-11-24T04:01:27.318Z,141.18
2022-11-24T04:03:54.941Z,141.35
2022-11-24T04:06:22.463Z,146.98
2022-11-24T04:08:49.934Z,154.38
2022-11-24T04:11:35.661Z,205.88
2022-11-24T04:14:03.107Z,156.57
2022-11-24T04:16:30.572Z,145.00
2022-11-24T04:18:58.174Z,145.05
2022-11-24T04:21:25.780Z,145.23
2022-11-24T04:23:53.237Z,147.63
2022-11-24T04:26:20.713Z,157.82
2022-11-24T04:28:49.334Z,153.77
2022-11-24T04:31:16.958Z,157.98
2022-11-24T04:33:44.608Z,155.07
2022-11-24T04:36:12.192Z,158.25
2022-11-24T04:39:24.689Z,165.88
2022-11-24T04:41:27.357Z,151.13
2022-11-24T04:43:54.843Z,159.75
2022-11-24T04:46:22.309Z,161.50
2022-11-24T04:48:49.802Z,168.30
2022-11-24T04:51:17.407Z,165.82
2022-11-24T04:53:44.958Z,174.93
2022-11-24T04:56:12.424Z,166.32
2022-11-24T04:58:40.003Z,164.32
2022-11-24T05:01:08.666Z,162.88
2022-11-24T05:03:36.997Z,162.55
2022-11-24T05:06:04.946Z,164.30
2022-11-24T05:08:32.670Z,159.73
2022-11-24T05:11:07.475Z,172.00
2022-11-24T05:13:34.928Z,158.02
2022-11-24T05:16:02.524Z,166.70
2022-11-24T05:18:30.265Z,161.48
2022-11-24T05:20:58.610Z,159.88
2022-11-24T05:23:26.157Z,157.80
2022-11-24T05:25:53.906Z,152.27
2022-11-24T05:28:21.492Z,153.98
2022-11-24T05:30:49.193Z,161.27
2022-11-24T05:33:19.189Z,170.02
2022-11-24T05:35:48.329Z,143.27
2022-11-24T05:38:17.639Z,145.38
2022-11-24T05:40:45.327Z,157.35
2022-11-24T05:43:16.898Z,146.95
2022-11-24T05:45:45.050Z,144.20
2022-11-24T05:48:15.793Z,148.32
2022-11-24T05:50:44.748Z,147.48
2022-11-24T05:53:13.235Z,163.32
2022-11-24T05:55:40.998Z,154.60
2022-11-24T05:58:10.098Z,124.25
2022-11-24T06:00:37.631Z,144.43
2022-11-24T06:03:05.362Z,132.27
2022-11-24T06:05:34.408Z,154.80
2022-11-24T06:08:03.290Z,131.85
2022-11-24T06:10:31.464Z,152.48
2022-11-24T06:12:59.335Z,117.95
2022-11-24T06:15:26.880Z,142.38
2022-11-24T06:17:55.850Z,181.98
2022-11-24T06:20:32.252Z,114.25
2022-11-24T06:23:01.261Z,102.68
2022-11-24T06:25:29.332Z,86.88
2022-11-24T06:27:57.320Z,95.47
2022-11-24T06:30:24.929Z,110.15
2022-11-24T06:32:55.561Z,141.25
2022-11-24T06:35:24.310Z,176.20
2022-11-24T06:37:52.163Z,255.27
2022-11-24T06:40:19.775Z,122.18
2022-11-24T06:42:52.290Z,109.90
2022-11-24T06:45:19.735Z,137.30
2022-11-24T06:47:47.274Z,115.30
2022-11-24T06:50:14.930Z,106.30
2022-11-24T06:52:42.449Z,107.95
2022-11-24T06:55:10.088Z,115.05
2022-11-24T06:57:37.652Z,106.35
2022-11-24T07:00:07.252Z,116.43
2022-11-24T07:02:34.861Z,118.57
2022-11-24T07:05:02.744Z,106.05
2022-11-24T07:07:31.090Z,104.32
2022-11-24T07:09:59.232Z,106.72
2022-11-24T07:12:29.266Z,107.47
2022-11-24T07:14:56.811Z,93.13
2022-11-24T07:17:24.270Z,100.80
2022-11-24T07:19:51.913Z,95.15
2022-11-24T07:22:19.407Z,88.85
2022-11-24T07:24:46.827Z,94.53
2022-11-24T07:27:14.326Z,89.82
2022-11-24T07:29:41.795Z,91.65
2022-11-24T07:32:11.264Z,89.18
2022-11-24T07:34:39.096Z,88.63
2022-11-24T07:37:06.689Z,87.55
2022-11-24T07:39:34.244Z,97.45
2022-11-24T07:42:01.963Z,93.70
2022-11-24T07:44:29.529Z,91.93
2022-11-24T07:46:57.076Z,91.40
2022-11-24T07:49:24.526Z,87.07
2022-11-24T07:51:52.385Z,88.22
2022-11-24T07:54:20.625Z,87.82
2022-11-24T07:56:49.079Z,96.32
2022-11-24T07:59:16.676Z,89.10
2022-11-24T08:01:45.317Z,89.53
2022-11-24T08:04:12.953Z,97.07
2022-11-24T08:06:45.942Z,95.88
2022-11-24T08:09:14.719Z,98.03
2022-11-24T08:11:42.217Z,97.95
2022-11-24T08:14:09.736Z,101.18
2022-11-24T08:16:37.344Z,106.32
2022-11-24T08:19:04.857Z,92.53
2022-11-24T08:21:32.648Z,93.97
2022-11-24T08:24:00.111Z,99.97
2022-11-24T08:26:27.601Z,90.88
2022-11-24T08:28:57.648Z,97.28
2022-11-24T08:31:32.671Z,99.53
2022-11-24T08:34:01.848Z,95.70
2022-11-24T08:36:29.994Z,98.75
2022-11-24T08:38:59.484Z,98.88
2022-11-24T08:41:28.783Z,98.55
2022-11-24T08:43:56.585Z,99.15
2022-11-24T08:46:24.360Z,95.10
2022-11-24T08:48:53.850Z,93.63
2022-11-24T08:51:24.310Z,96.45
2022-11-24T08:53:56.561Z,97.70
2022-11-24T08:56:25.613Z,97.97
2022-11-24T08:58:55.148Z,102.20
2022-11-24T09:01:23.727Z,107.60
2022-11-24T09:03:51.905Z,95.45
2022-11-24T09:06:25.001Z,114.15
2022-11-24T09:08:54.611Z,107.78
2022-11-24T09:11:22.639Z,89.55
2022-11-24T09:13:50.526Z,85.93
2022-11-24T09:16:22.101Z,92.15
2022-11-24T09:18:55.605Z,92.05
2022-11-24T09:21:24.094Z,87.33
2022-11-24T09:23:53.347Z,85.30
2022-11-24T09:26:24.405Z,86.53
2022-11-24T09:28:54.604Z,84.65
2022-11-24T09:31:28.424Z,84.47
2022-11-24T09:33:56.795Z,91.07
2022-11-24T09:36:25.037Z,86.22
2022-11-24T09:38:52.709Z,91.20
2022-11-24T09:41:23.206Z,79.65
2022-11-24T09:44:27.152Z,90.28
2022-11-24T09:47:13.248Z,91.13
2022-11-24T09:49:59.618Z,89.57
2022-11-24T09:52:50.176Z,86.38
2022-11-24T09:55:28.024Z,90.78
2022-11-24T09:58:18.407Z,85.60
2022-11-24T10:00:48.622Z,88.40
2022-11-24T10:03:23.422Z,78.28
2022-11-24T10:05:51.626Z,83.95
2022-11-24T10:08:34.842Z,78.63
2022-11-24T10:11:11.472Z,79.95
2022-11-24T10:13:42.940Z,80.18
2022-11-24T10:16:31.688Z,75.60
2022-11-24T10:19:21.989Z,70.32
2022-11-24T10:21:57.396Z,76.30
2022-11-24T10:24:27.823Z,81.40
2022-11-24T10:27:17.502Z,71.15
2022-11-24T10:29:49.983Z,69.25
2022-11-24T10:32:26.661Z,71.88
2022-11-24T10:34:59.041Z,65.20
2022-11-24T10:37:35.307Z,66.03
2022-11-24T10:40:10.849Z,72.30
2022-11-24T10:42:45.707Z,70.90
2022-11-24T10:45:16.032Z,60.38
2022-11-24T10:47:44.613Z,68.47
2022-11-24T10:50:27.238Z,66.05
2022-11-24T10:53:19.083Z,65.50
2022-11-24T10:55:55.975Z,65.07
2022-11-24T10:58:38.013Z,60.28
2022-11-24T11:01:15.632Z,57.38
2022-11-24T11:03:49.389Z,56.80
2022-11-24T11:06:32.534Z,57.72
2022-11-24T11:09:06.194Z,59.50
2022-11-24T11:11:35.569Z,51.67
2022-11-24T11:14:05.729Z,55.80
2022-11-24T11:16:53.361Z,54.40
2022-11-24T11:19:58.425Z,54.08
2022-11-24T11:22:29.909Z,49.53
2022-11-24T11:25:24.644Z,52.80
2022-11-24T11:31:18.148Z,50.58
2022-11-24T11:34:06.150Z,50.53
2022-11-24T11:36:43.592Z,45.22
2022-11-24T11:39:31.721Z,44.80
2022-11-24T11:45:28.022Z,45.60
2022-11-24T11:48:01.385Z,44.37
2022-11-24T11:50:47.486Z,39.70
2022-11-24T11:53:29.500Z,40.17
2022-11-24T11:56:06.887Z,38.63
2022-11-24T11:58:55.720Z,41.13
2022-11-24T12:02:00.948Z,40.47
2022-11-24T12:04:47.003Z,39.08
2022-11-24T12:07:38.724Z,39.67
2022-11-24T12:10:18.950Z,38.35
2022-11-24T12:12:56.908Z,38.17
2022-11-24T12:15:40.256Z,37.72
2022-11-24T12:18:56.041Z,40.00
2022-11-24T12:24:18.819Z,34.17
2022-11-24T12:26:56.781Z,45.33
2022-11-24T12:30:10.724Z,37.03
2022-11-24T12:33:00.346Z,39.13
2022-11-24T12:35:46.249Z,34.78
2022-11-24T12:38:41.608Z,37.83
2022-11-24T12:41:44.699Z,35.38
2022-11-24T12:44:39.766Z,35.25
2022-11-24T12:49:57.082Z,32.30
2022-11-24T12:52:39.814Z,32.97
2022-11-24T12:55:17.141Z,33.05
2022-11-24T12:57:49.529Z,33.28
2022-11-24T13:00:23.467Z,34.13
2022-11-24T13:02:57.419Z,33.20
2022-11-24T13:05:58.878Z,34.65
2022-11-24T13:08:28.130Z,36.30
2022-11-24T13:11:21.105Z,33.00
2022-11-24T13:14:00.837Z,37.15
2022-11-24T13:16:44.465Z,33.45
2022-11-24T13:19:22.475Z,30.98
2022-11-24T13:22:08.321Z,31.85
2022-11-24T13:24:38.746Z,33.55
2022-11-24T13:27:19.755Z,33.67
2022-11-24T13:29:49.756Z,35.08
2022-11-24T13:32:22.814Z,33.90
2022-11-24T13:34:54.895Z,38.05
2022-11-24T13:37:33.640Z,35.40
2022-11-24T13:40:23.074Z,33.65
2022-11-24T13:43:02.539Z,35.80
2022-11-24T13:45:39.038Z,32.40
2022-11-24T13:48:19.200Z,35.58
2022-11-24T13:50:49.718Z,33.40
2022-11-24T13:53:45.044Z,32.88
2022-11-24T13:56:12.443Z,35.38
2022-11-24T13:59:00.133Z,37.55
2022-11-24T14:01:33.150Z,30.17
2022-11-24T14:04:31.496Z,34.65
2022-11-24T14:07:09.818Z,33.35
2022-11-24T14:09:47.088Z,32.63
2022-11-24T14:12:25.248Z,30.60
2022-11-24T14:14:57.016Z,30.48
2022-11-24T14:17:28.058Z,35.45
2022-11-24T14:19:57.150Z,32.83
2022-11-24T14:22:26.912Z,36.60
2022-11-24T14:24:56.369Z,30.75
2022-11-24T14:27:29.875Z,32.50
2022-11-24T14:30:18.947Z,32.50
2022-11-24T14:33:03.990Z,36.63
2022-11-24T14:35:34.361Z,31.30
2022-11-24T14:38:03.822Z,31.52
2022-11-24T14:40:48.464Z,28.30
2022-11-24T14:43:22.563Z,34.15
2022-11-24T14:46:09.175Z,39.30
2022-11-24T14:48:39.047Z,33.67
2022-11-24T14:51:07.208Z,35.78
2022-11-24T14:53:35.581Z,34.92
2022-11-24T14:56:23.831Z,42.53
2022-11-24T14:58:52.968Z,34.47
2022-11-24T15:01:28.411Z,36.70
2022-11-24T15:04:54.550Z,41.45
2022-11-24T15:07:26.046Z,45.00
2022-11-24T15:09:58.183Z,38.97
2022-11-24T15:12:40.791Z,41.65
2022-11-24T15:15:14.129Z,46.83
2022-11-24T15:17:55.607Z,47.60
2022-11-24T15:20:46.141Z,51.88
2022-11-24T15:23:13.666Z,39.67
2022-11-24T15:25:41.287Z,46.05
2022-11-24T15:28:09.277Z,49.42
2022-11-24T15:30:37.658Z,49.42
2022-11-24T15:33:14.729Z,48.45
2022-11-24T15:35:42.783Z,41.65
2022-11-24T15:38:10.863Z,40.92
2022-11-24T15:40:39.490Z,40.90
2022-11-24T15:43:25.242Z,45.08
2022-11-24T15:45:52.962Z,47.97
2022-11-24T15:48:20.490Z,50.42
2022-11-24T15:50:49.057Z,48.00
2022-11-24T15:53:35.720Z,46.72
2022-11-24T15:56:06.241Z,47.67
2022-11-24T15:58:33.965Z,49.20
2022-11-24T16:01:01.474Z,49.70
2022-11-24T16:06:24.693Z,49.05
2022-11-24T16:08:53.908Z,46.83
2022-11-24T16:11:22.563Z,47.63
2022-11-24T16:13:53.301Z,51.42
2022-11-24T16:16:24.804Z,48.30
2022-11-24T16:18:52.757Z,51.33
2022-11-24T16:21:20.643Z,56.92
2022-11-24T16:23:48.791Z,54.45
2022-11-24T16:26:16.327Z,56.55
2022-11-24T16:28:45.811Z,52.40
2022-11-24T16:31:15.799Z,55.45
2022-11-24T16:33:45.358Z,49.38
2022-11-24T16:36:14.401Z,49.13
2022-11-24T16:38:42.148Z,49.92
2022-11-24T16:41:10.414Z,52.38
2022-11-24T16:43:38.436Z,53.13
2022-11-24T16:46:19.356Z,48.60
2022-11-24T16:48:49.404Z,49.95
2022-11-24T16:51:18.308Z,51.33
2022-11-24T16:53:46.274Z,51.70
2022-11-24T16:56:14.814Z,51.90
2022-11-24T16:58:42.334Z,53.45
2022-11-24T17:01:12.372Z,49.33
2022-11-24T17:03:41.011Z,55.10
2022-11-24T17:06:13.482Z,56.90
2022-11-24T17:08:42.082Z,52.35
2022-11-24T17:11:10.562Z,51.67
2022-11-24T17:13:38.926Z,51.05
2022-11-24T17:16:10.203Z,49.80
2022-11-24T17:18:38.980Z,47.47
2022-11-24T17:21:11.967Z,52.35
2022-11-24T17:23:40.055Z,49.63
2022-11-24T17:26:11.541Z,55.10
2022-11-24T17:28:40.472Z,51.25
2022-11-24T17:31:10.408Z,52.83
2022-11-24T17:33:37.998Z,51.60
2022-11-24T17:36:06.714Z,51.47
2022-11-24T17:38:35.158Z,50.30
2022-11-24T17:41:03.037Z,57.88
2022-11-24T17:43:30.756Z,63.65
2022-11-24T17:46:01.965Z,58.53
2022-11-24T17:48:31.135Z,73.13
2022-11-24T17:51:04.486Z,62.50
2022-11-24T17:53:32.193Z,70.38
2022-11-24T17:56:00.975Z,64.40
2022-11-24T17:58:30.415Z,79.00
2022-11-24T18:00:59.422Z,64.88
2022-11-24T18:03:28.696Z,63.70
2022-11-24T18:05:56.279Z,130.30
2022-11-24T18:08:24.313Z,111.05
2022-11-24T18:10:52.027Z,99.40
2022-11-24T18:13:48.448Z,79.60
2022-11-24T18:16:10.381Z,122.97
2022-11-24T18:18:40.369Z,100.13
2022-11-24T18:21:17.342Z,106.50
2022-11-24T18:23:46.671Z,140.38
2022-11-24T18:26:15.940Z,160.93
2022-11-24T18:28:44.681Z,117.93
2022-11-24T18:31:15.502Z,162.35
2022-11-24T18:33:44.133Z,101.93
2022-11-24T18:36:17.731Z,78.80
2022-11-24T18:38:46.012Z,78.10
2022-11-24T18:41:14.775Z,76.13
2022-11-24T18:43:43.283Z,79.80
2022-11-24T18:46:16.297Z,102.47
2022-11-24T18:48:45.837Z,75.30
2022-11-24T18:51:16.259Z,71.95
2022-11-24T18:53:45.810Z,79.90
2022-11-24T18:56:16.264Z,196.75
2022-11-24T18:58:44.567Z,117.65
2022-11-24T19:01:14.952Z,96.28
2022-11-24T19:03:48.916Z,112.55
2022-11-24T19:06:18.502Z,105.45
2022-11-24T19:08:47.712Z,125.65
2022-11-24T19:11:22.774Z,97.93
2022-11-24T19:13:50.821Z,101.97
2022-11-24T19:16:20.026Z,97.07
2022-11-24T19:18:53.707Z,95.05
2022-11-24T19:21:22.864Z,108.72
2022-11-24T19:23:50.667Z,92.65
2022-11-24T19:26:18.839Z,92.05
2022-11-24T19:28:48.172Z,103.47
2022-11-24T19:31:18.075Z,121.70
2022-11-24T19:33:46.157Z,147.68
2022-11-24T19:36:16.930Z,116.60
2022-11-24T19:38:55.811Z,104.95
2022-11-24T19:41:26.503Z,113.50
2022-11-24T19:43:54.995Z,102.32
2022-11-24T19:46:27.127Z,99.35
2022-11-24T19:48:57.187Z,108.88
2022-11-24T19:51:28.373Z,90.72
2022-11-24T19:53:56.942Z,94.45
2022-11-24T19:56:27.783Z,92.78
2022-11-24T19:58:55.970Z,85.00
2022-11-24T20:01:26.362Z,87.57
2022-11-24T20:04:00.293Z,82.32
2022-11-24T20:06:32.811Z,91.20
2022-11-24T20:09:01.257Z,80.70
2022-11-24T20:11:29.867Z,80.82
2022-11-24T20:13:58.189Z,79.00
2022-11-24T20:16:31.001Z,82.05
2022-11-24T20:19:01.540Z,84.68
2022-11-24T20:21:32.583Z,74.28
2022-11-24T20:24:03.977Z,72.25
2022-11-24T20:26:35.478Z,74.30
2022-11-24T20:29:05.228Z,78.88
2022-11-24T20:31:35.890Z,87.53
2022-11-24T20:34:05.946Z,114.18
2022-11-24T20:36:35.623Z,88.95
2022-11-24T20:39:06.648Z,115.13
2022-11-24T20:41:36.398Z,101.95
2022-11-24T20:44:10.602Z,74.95
2022-11-24T20:46:40.342Z,81.82
2022-11-24T20:49:10.739Z,86.47
2022-11-24T20:51:41.940Z,74.90
2022-11-24T20:54:11.224Z,85.18
2022-11-24T20:56:41.418Z,81.65
2022-11-24T20:59:13.737Z,80.05
2022-11-24T21:01:45.363Z,84.50
2022-11-24T21:04:16.925Z,87.30
2022-11-24T21:06:44.778Z,80.72
2022-11-24T21:09:13.738Z,76.72
2022-11-24T21:11:41.424Z,87.10
2022-11-24T21:14:09.688Z,83.47
2022-11-24T21:16:38.884Z,81.40
2022-11-24T21:19:18.277Z,83.68
2022-11-24T21:21:47.724Z,75.90
2022-11-24T21:24:17.640Z,75.97
2022-11-24T21:26:51.288Z,79.38
2022-11-24T21:29:22.193Z,80.97
2022-11-24T21:31:49.994Z,78.05
2022-11-24T21:34:20.942Z,85.85
2022-11-24T21:36:48.445Z,93.15
2022-11-24T21:39:16.288Z,95.05
2022-11-24T21:41:44.085Z,97.93
2022-11-24T21:44:13.475Z,134.20
2022-11-24T21:46:46.133Z,105.63
2022-11-24T21:49:18.573Z,105.78
2022-11-24T21:51:48.166Z,118.63
2022-11-24T21:54:15.620Z,114.45
2022-11-24T21:56:43.117Z,107.82
2022-11-24T21:59:10.758Z,109.05
2022-11-24T22:01:38.536Z,111.20
2022-11-24T22:04:09.911Z,119.40
2022-11-24T22:06:37.859Z,120.65
2022-11-24T22:09:05.336Z,121.43
2022-11-24T22:11:32.782Z,108.90
2022-11-24T22:14:00.315Z,108.93
2022-11-24T22:16:28.144Z,112.05
2022-11-24T22:18:55.842Z,123.97
2022-11-24T22:21:29.234Z,122.78
2022-11-24T22:23:56.948Z,111.80
2022-11-24T22:26:25.559Z,109.90
2022-11-24T22:28:57.381Z,112.07
2022-11-24T22:31:27.773Z,121.40
2022-11-24T22:33:56.629Z,123.25
2022-11-24T22:36:26.208Z,124.25
2022-11-24T22:39:04.764Z,128.73
2022-11-24T22:41:34.249Z,130.85
2022-11-24T22:44:02.381Z,123.45
2022-11-24T22:46:31.095Z,120.32
2022-11-24T22:49:00.977Z,120.00
2022-11-24T22:51:31.495Z,112.90
2022-11-24T22:54:02.315Z,100.32
2022-11-24T22:56:32.473Z,94.60
2022-11-24T22:59:01.544Z,98.20
2022-11-24T23:01:30.571Z,87.47
2022-11-24T23:03:58.119Z,82.93
2022-11-24T23:06:28.462Z,77.90
2022-11-24T23:08:57.519Z,77.53
2022-11-24T23:11:36.419Z,85.15
2022-11-24T23:14:13.283Z,74.30
2022-11-24T23:16:41.293Z,90.65
2022-11-24T23:19:10.093Z,72.25
2022-11-24T23:21:38.612Z,78.32
2022-11-24T23:24:08.458Z,73.45
2022-11-24T23:26:38.574Z,70.25
2022-11-24T23:29:07.257Z,79.68
2022-11-24T23:31:35.576Z,70.88
2022-11-24T23:34:04.034Z,77.55
2022-11-24T23:36:32.545Z,75.55
2022-11-24T23:39:08.053Z,64.70
2022-11-24T23:41:35.892Z,70.28
2022-11-24T23:44:03.775Z,73.25
2022-11-24T23:46:31.353Z,70.90
2022-11-24T23:48:59.368Z,73.15
2022-11-24T23:51:31.906Z,75.05
2022-11-24T23:54:00.336Z,75.80
2022-11-24T23:56:32.658Z,73.90
2022-11-24T23:59:02.409Z,75.07
